Time,TemperatureF,DewpointF,PressureIn,WindDirection,WindDirectionDegrees,WindSpeedMPH,WindSpeedGustMPH,Humidity,HourlyPrecipIn,Conditions,Clouds,dailyrainin,SoftwareType,DateUTC
2013-07-05 13:51:00,96.4,74.2,30.55,North,0,0.0,0.0,49,0.00,,,0.00,WUHU216HW,2013-07-05 17:51:00,
2013-07-05 13:56:00,96.6,73.7,30.55,NNW,338,0.0,0.0,48,0.00,,,0.00,WUHU216HW,2013-07-05 17:56:00,
2013-07-05 14:01:00,96.6,73.7,30.55,SE,135,0.0,0.0,48,0.00,,,0.00,WUHU216HW,2013-07-05 18:01:00,
2013-07-05 14:06:00,96.0,73.2,30.55,ENE,68,0.0,2.6,48,0.00,,,0.00,WUHU216HW,2013-07-05 18:06:00,
2013-07-05 14:11:00,95.7,73.5,30.54,ESE,113,0.0,5.1,49,0.00,,,0.00,WUHU216HW,2013-07-05 18:11:00,
2013-07-05 14:16:00,95.5,74.0,30.54,NE,45,0.0,5.1,50,0.00,,,0.00,WUHU216HW,2013-07-05 18:16:00,
2013-07-05 14:21:00,95.5,74.0,30.53,WSW,248,0.0,0.0,50,0.00,,,0.00,WUHU216HW,2013-07-05 18:21:00,
2013-07-05 14:26:00,95.3,73.9,30.54,East,90,0.0,0.0,50,0.00,,,0.00,WUHU216HW,2013-07-05 18:26:00,
2013-07-05 14:31:00,94.8,74.4,30.53,ESE,113,0.0,2.2,52,0.00,,,0.00,WUHU216HW,2013-07-05 18:31:00,
2013-07-05 14:36:00,93.3,73.6,30.53,SE,135,0.0,2.2,53,0.00,,,0.00,WUHU216HW,2013-07-05 18:36:00,
2013-07-05 14:41:00,92.6,74.0,30.53,SE,135,0.0,5.5,55,0.00,,,0.00,WUHU216HW,2013-07-05 18:41:00,
2013-07-05 14:46:00,92.1,73.5,30.53,SE,135,4.6,10.7,55,0.00,,,0.00,WUHU216HW,2013-07-05 18:46:00,
2013-07-05 14:51:00,91.9,73.9,30.53,ESE,113,6.7,10.7,56,0.00,,,0.00,WUHU216HW,2013-07-05 18:51:00,
2013-07-05 14:56:00,91.9,73.9,30.53,SE,135,5.5,6.7,56,0.00,,,0.00,WUHU216HW,2013-07-05 18:56:00,
2013-07-05 15:01:00,91.2,73.7,30.53,ESE,113,2.0,6.7,57,0.00,,,0.00,WUHU216HW,2013-07-05 19:01:00,
2013-07-05 15:06:00,90.6,73.8,30.52,SE,135,5.5,5.8,58,0.00,,,0.00,WUHU216HW,2013-07-05 19:06:00,
2013-07-05 15:11:00,90.6,73.8,30.53,ESE,113,5.5,8.2,58,0.00,,,0.00,WUHU216HW,2013-07-05 19:11:00,
2013-07-05 15:16:00,90.6,73.8,30.53,SE,135,0.0,8.2,58,0.00,,,0.00,WUHU216HW,2013-07-05 19:16:00,
2013-07-05 15:21:00,91.2,73.7,30.52,SE,135,0.0,7.3,57,0.00,,,0.00,WUHU216HW,2013-07-05 19:21:00,
2013-07-05 15:26:00,91.2,73.7,30.52,SE,135,3.5,7.3,57,0.00,,,0.00,WUHU216HW,2013-07-05 19:26:00,
2013-07-05 15:31:00,91.2,73.7,30.52,SE,135,7.6,7.6,57,0.00,,,0.00,WUHU216HW,2013-07-05 19:31:00,
2013-07-05 15:36:00,91.4,73.9,30.52,SSE,158,0.0,7.6,57,0.00,,,0.00,WUHU216HW,2013-07-05 19:36:00,
2013-07-05 15:41:00,91.2,73.7,30.52,SE,135,7.3,7.3,57,0.00,,,0.00,WUHU216HW,2013-07-05 19:41:00,
2013-07-05 15:46:00,91.0,73.6,30.52,SSE,158,0.0,7.3,57,0.00,,,0.00,WUHU216HW,2013-07-05 19:46:00,
2013-07-05 15:51:00,90.6,73.8,30.51,SSE,158,5.5,5.5,58,0.00,,,0.00,WUHU216HW,2013-07-05 19:51:00,
2013-07-05 15:56:00,91.0,73.6,30.51,ESE,113,1.5,5.5,57,0.00,,,0.00,WUHU216HW,2013-07-05 19:56:00,
2013-07-05 16:01:00,90.8,73.4,30.51,SE,135,7.1,7.1,57,0.00,,,0.00,WUHU216HW,2013-07-05 20:01:00,
2013-07-05 16:06:00,91.0,73.6,30.51,ESE,113,4.0,7.1,57,0.00,,,0.00,WUHU216HW,2013-07-05 20:06:00,
2013-07-05 16:12:00,91.0,73.6,30.50,ESE,113,0.0,4.6,57,0.00,,,0.00,WUHU216HW,2013-07-05 20:12:00,
2013-07-05 16:17:00,91.2,73.2,30.50,SE,135,4.4,7.3,56,0.00,,,0.00,WUHU216HW,2013-07-05 20:17:00,
2013-07-05 16:22:00,91.2,73.7,30.50,SE,135,0.0,7.3,57,0.00,,,0.00,WUHU216HW,2013-07-05 20:22:00,
2013-07-05 16:27:00,91.5,73.5,30.50,ESE,113,4.4,6.9,56,0.00,,,0.00,WUHU216HW,2013-07-05 20:27:00,
2013-07-05 16:32:00,91.9,73.9,30.49,SE,135,0.0,4.4,56,0.00,,,0.00,WUHU216HW,2013-07-05 20:32:00,
2013-07-05 16:37:00,92.3,73.1,30.49,NNW,338,0.0,2.9,54,0.00,,,0.00,WUHU216HW,2013-07-05 20:37:00,
2013-07-05 16:42:00,92.8,71.9,30.49,NNW,338,0.0,2.9,51,0.00,,,0.00,WUHU216HW,2013-07-05 20:42:00,
2013-07-05 16:47:00,93.0,72.1,30.49,North,0,0.0,0.0,51,0.00,,,0.00,WUHU216HW,2013-07-05 20:47:00,
2013-07-05 16:52:00,93.0,71.6,30.49,North,0,0.0,0.0,50,0.00,,,0.00,WUHU216HW,2013-07-05 20:52:00,
2013-07-05 16:57:00,93.0,71.6,30.48,North,0,3.5,3.5,50,0.00,,,0.00,WUHU216HW,2013-07-05 20:57:00,
2013-07-05 17:02:00,93.3,71.9,30.48,NNE,23,0.0,3.5,50,0.00,,,0.00,WUHU216HW,2013-07-05 21:02:00,
2013-07-05 17:07:00,93.0,71.6,30.48,NNW,338,0.0,0.0,50,0.00,,,0.00,WUHU216HW,2013-07-05 21:07:00,
2013-07-05 17:12:00,93.0,71.6,30.48,WSW,248,0.0,1.3,50,0.00,,,0.00,WUHU216HW,2013-07-05 21:12:00,
2013-07-05 17:17:00,92.8,71.4,30.48,WSW,248,0.0,1.3,50,0.00,,,0.00,WUHU216HW,2013-07-05 21:17:00,
2013-07-05 17:22:00,92.8,71.4,30.48,NE,45,4.9,4.9,50,0.00,,,0.00,WUHU216HW,2013-07-05 21:22:00,
2013-07-05 17:27:00,92.4,71.1,30.48,SSE,158,0.0,4.9,50,0.00,,,0.00,WUHU216HW,2013-07-05 21:27:00,
2013-07-05 17:32:00,92.6,71.2,30.48,NW,315,0.0,4.9,50,0.00,,,0.00,WUHU216HW,2013-07-05 21:32:00,
2013-07-05 17:37:00,92.8,71.4,30.48,NE,45,0.0,3.1,50,0.00,,,0.00,WUHU216HW,2013-07-05 21:37:00,
2013-07-05 17:42:00,92.8,70.8,30.47,WSW,248,0.8,3.1,49,0.00,,,0.00,WUHU216HW,2013-07-05 21:42:00,
2013-07-05 17:47:00,92.4,71.1,30.47,NNW,338,0.0,0.8,50,0.00,,,0.00,WUHU216HW,2013-07-05 21:47:00,
2013-07-05 17:52:00,92.4,70.4,30.47,East,90,8.2,8.2,49,0.00,,,0.00,WUHU216HW,2013-07-05 21:52:00,
2013-07-05 17:57:00,92.3,70.9,30.47,NW,315,0.0,8.2,50,0.00,,,0.00,WUHU216HW,2013-07-05 21:57:00,
2013-07-05 18:02:00,92.1,70.1,30.47,NNE,23,1.3,8.2,49,0.00,,,0.00,WUHU216HW,2013-07-05 22:02:00,
2013-07-05 18:07:00,91.9,70.6,30.47,NNE,23,0.0,1.3,50,0.00,,,0.00,WUHU216HW,2013-07-05 22:07:00,
2013-07-05 18:12:00,91.9,70.6,30.47,East,90,0.0,0.0,50,0.00,,,0.00,WUHU216HW,2013-07-05 22:12:00,
2013-07-05 18:17:00,91.9,70.6,30.47,North,0,0.0,0.0,50,0.00,,,0.00,WUHU216HW,2013-07-05 22:17:00,
2013-07-05 18:22:00,91.7,71.0,30.47,North,0,0.4,0.4,51,0.00,,,0.00,WUHU216HW,2013-07-05 22:22:00,
2013-07-05 18:27:00,91.7,71.0,30.47,ENE,68,0.0,0.4,51,0.00,,,0.00,WUHU216HW,2013-07-05 22:27:00,
2013-07-05 18:32:00,91.5,70.8,30.47,NNE,23,8.2,8.2,51,0.00,,,0.00,WUHU216HW,2013-07-05 22:32:00,
2013-07-05 18:37:00,91.2,70.5,30.47,NNE,23,0.0,8.2,51,0.00,,,0.00,WUHU216HW,2013-07-05 22:37:00,
2013-07-05 18:42:00,91.2,70.5,30.47,NNE,23,0.0,0.0,51,0.00,,,0.00,WUHU216HW,2013-07-05 22:42:00,
2013-07-05 18:47:00,91.2,71.0,30.47,SE,135,2.0,2.0,52,0.00,,,0.00,WUHU216HW,2013-07-05 22:47:00,
2013-07-05 18:52:00,90.8,70.7,30.47,East,90,0.0,2.0,52,0.00,,,0.00,WUHU216HW,2013-07-05 22:52:00,
2013-07-05 18:57:00,90.6,70.5,30.47,NNW,338,0.0,3.5,52,0.00,,,0.00,WUHU216HW,2013-07-05 22:57:00,
2013-07-05 19:02:00,90.6,70.5,30.47,North,0,0.0,3.5,52,0.00,,,0.00,WUHU216HW,2013-07-05 23:02:00,
2013-07-05 19:07:00,90.6,70.5,30.47,ENE,68,0.0,0.0,52,0.00,,,0.00,WUHU216HW,2013-07-05 23:07:00,
2013-07-05 19:12:00,90.5,70.9,30.47,WNW,293,0.0,0.0,53,0.00,,,0.00,WUHU216HW,2013-07-05 23:12:00,
2013-07-05 19:17:00,90.5,70.9,30.47,NNW,338,0.0,0.0,53,0.00,,,0.00,WUHU216HW,2013-07-05 23:17:00,
2013-07-05 19:22:00,90.1,70.6,30.47,ENE,68,0.0,0.0,53,0.00,,,0.00,WUHU216HW,2013-07-05 23:22:00,
2013-07-05 19:27:00,89.9,70.4,30.47,NNW,338,1.3,1.3,53,0.00,,,0.00,WUHU216HW,2013-07-05 23:27:00,
2013-07-05 19:32:00,89.7,70.3,30.47,SSE,158,2.2,2.2,53,0.00,,,0.00,WUHU216HW,2013-07-05 23:32:00,
2013-07-05 19:37:00,89.7,70.3,30.47,North,0,0.0,2.2,53,0.00,,,0.00,WUHU216HW,2013-07-05 23:37:00,
2013-07-05 19:42:00,89.6,70.1,30.47,West,270,0.0,2.2,53,0.00,,,0.00,WUHU216HW,2013-07-05 23:42:00,
2013-07-05 19:47:00,89.4,69.9,30.47,NNE,23,0.0,3.8,53,0.00,,,0.00,WUHU216HW,2013-07-05 23:47:00,
2013-07-05 19:52:00,89.4,70.5,30.47,WNW,293,0.0,3.8,54,0.00,,,0.00,WUHU216HW,2013-07-05 23:52:00,
2013-07-05 19:57:00,89.2,70.3,30.47,ESE,113,0.0,0.0,54,0.00,,,0.00,WUHU216HW,2013-07-05 23:57:00,
2013-07-05 20:02:00,88.8,70.5,30.47,ESE,113,0.0,0.0,55,0.00,,,0.00,WUHU216HW,2013-07-06 00:02:00,
2013-07-05 20:07:00,88.7,69.8,30.47,NE,45,0.0,3.8,54,0.00,,,0.00,WUHU216HW,2013-07-06 00:07:00,
2013-07-05 20:12:00,88.5,69.7,30.47,East,90,0.0,3.8,54,0.00,,,0.00,WUHU216HW,2013-07-06 00:12:00,
2013-07-05 20:17:00,88.3,70.1,30.47,NNE,23,0.0,0.0,55,0.00,,,0.00,WUHU216HW,2013-07-06 00:17:00,
2013-07-05 20:22:00,87.9,69.7,30.47,ENE,68,0.0,1.7,55,0.00,,,0.00,WUHU216HW,2013-07-06 00:22:00,
2013-07-05 20:27:00,87.9,69.7,30.47,NNE,23,0.0,1.7,55,0.00,,,0.00,WUHU216HW,2013-07-06 00:27:00,
2013-07-05 20:32:00,87.6,69.9,30.47,NNE,23,3.1,3.1,56,0.00,,,0.00,WUHU216HW,2013-07-06 00:32:00,
2013-07-05 20:37:00,87.6,69.9,30.47,West,270,0.0,3.1,56,0.00,,,0.00,WUHU216HW,2013-07-06 00:37:00,
2013-07-05 20:42:00,87.4,69.8,30.47,North,0,0.0,3.1,56,0.00,,,0.00,WUHU216HW,2013-07-06 00:42:00,
2013-07-05 20:47:00,87.2,70.1,30.47,South,180,0.0,0.0,57,0.00,,,0.00,WUHU216HW,2013-07-06 00:47:00,
2013-07-05 20:52:00,87.0,69.9,30.47,NE,45,0.0,0.0,57,0.00,,,0.00,WUHU216HW,2013-07-06 00:52:00,
2013-07-05 20:57:00,86.9,70.3,30.47,NW,315,0.0,0.0,58,0.00,,,0.00,WUHU216HW,2013-07-06 00:57:00,
2013-07-05 21:02:00,86.7,70.1,30.47,NW,315,0.0,0.0,58,0.00,,,0.00,WUHU216HW,2013-07-06 01:02:00,
2013-07-05 21:07:00,86.7,70.7,30.47,SSE,158,0.0,0.0,59,0.00,,,0.00,WUHU216HW,2013-07-06 01:07:00,
2013-07-05 21:12:00,86.5,70.5,30.47,WNW,293,0.0,0.0,59,0.00,,,0.00,WUHU216HW,2013-07-06 01:12:00,
2013-07-05 21:17:00,86.3,70.8,30.48,WNW,293,4.6,4.6,60,0.00,,,0.00,WUHU216HW,2013-07-06 01:17:00,
2013-07-05 21:22:00,86.1,70.7,30.48,NE,45,0.0,4.6,60,0.00,,,0.00,WUHU216HW,2013-07-06 01:22:00,
2013-07-05 21:27:00,86.1,70.7,30.48,North,0,5.3,5.3,60,0.00,,,0.00,WUHU216HW,2013-07-06 01:27:00,
2013-07-05 21:32:00,85.8,70.3,30.49,NNW,338,0.0,5.3,60,0.00,,,0.00,WUHU216HW,2013-07-06 01:32:00,
2013-07-05 21:37:00,85.8,70.3,30.49,North,0,3.5,5.3,60,0.00,,,0.00,WUHU216HW,2013-07-06 01:37:00,
2013-07-05 21:42:00,85.8,70.3,30.49,North,0,4.9,4.9,60,0.00,,,0.00,WUHU216HW,2013-07-06 01:42:00,
2013-07-05 21:47:00,85.8,70.8,30.50,NNW,338,0.0,4.9,61,0.00,,,0.00,WUHU216HW,2013-07-06 01:47:00,
2013-07-05 21:52:00,85.6,70.6,30.50,NE,45,0.0,4.9,61,0.00,,,0.00,WUHU216HW,2013-07-06 01:52:00,
2013-07-05 21:57:00,85.6,70.6,30.50,NE,45,0.0,0.0,61,0.00,,,0.00,WUHU216HW,2013-07-06 01:57:00,
2013-07-05 22:02:00,85.4,70.4,30.50,East,90,0.0,0.0,61,0.00,,,0.00,WUHU216HW,2013-07-06 02:02:00,
2013-07-05 22:07:00,85.2,70.7,30.50,NE,45,0.0,0.0,62,0.00,,,0.00,WUHU216HW,2013-07-06 02:07:00,
2013-07-05 22:12:00,85.1,70.6,30.50,ENE,68,0.0,0.0,62,0.00,,,0.00,WUHU216HW,2013-07-06 02:12:00,
2013-07-05 22:17:00,85.1,70.6,30.50,NE,45,1.1,5.5,62,0.00,,,0.00,WUHU216HW,2013-07-06 02:17:00,
2013-07-05 22:22:00,84.9,70.9,30.50,NE,45,0.0,5.5,63,0.00,,,0.00,WUHU216HW,2013-07-06 02:22:00,
2013-07-05 22:27:00,84.7,70.7,30.50,NW,315,0.0,1.1,63,0.00,,,0.00,WUHU216HW,2013-07-06 02:27:00,
2013-07-05 22:32:00,84.7,70.7,30.50,SE,135,0.0,0.0,63,0.00,,,0.00,WUHU216HW,2013-07-06 02:32:00,
2013-07-05 22:37:00,84.5,71.0,30.50,SSE,158,0.0,0.0,64,0.00,,,0.00,WUHU216HW,2013-07-06 02:37:00,
2013-07-05 22:42:00,84.3,70.8,30.50,North,0,0.0,1.1,64,0.00,,,0.00,WUHU216HW,2013-07-06 02:42:00,
2013-07-05 22:47:00,84.2,70.7,30.51,NE,45,0.0,1.1,64,0.00,,,0.00,WUHU216HW,2013-07-06 02:47:00,
2013-07-05 22:52:00,84.2,71.1,30.50,SE,135,0.0,0.0,65,0.00,,,0.00,WUHU216HW,2013-07-06 02:52:00,
2013-07-05 22:57:00,84.0,70.9,30.50,ESE,113,0.0,0.0,65,0.00,,,0.00,WUHU216HW,2013-07-06 02:57:00,
2013-07-05 23:02:00,84.0,70.9,30.51,ESE,113,0.0,0.0,65,0.00,,,0.00,WUHU216HW,2013-07-06 03:02:00,
2013-07-05 23:07:00,84.0,70.9,30.50,ESE,113,0.0,0.0,65,0.00,,,0.00,WUHU216HW,2013-07-06 03:07:00,
2013-07-05 23:12:00,84.0,70.9,30.51,ESE,113,0.0,0.0,65,0.00,,,0.00,WUHU216HW,2013-07-06 03:12:00,
2013-07-05 23:17:00,83.8,70.7,30.51,East,90,0.0,0.0,65,0.00,,,0.00,WUHU216HW,2013-07-06 03:17:00,
2013-07-05 23:22:00,83.8,70.7,30.52,North,0,0.0,2.4,65,0.00,,,0.00,WUHU216HW,2013-07-06 03:22:00,
2013-07-05 23:27:00,83.8,70.7,30.52,North,0,0.0,2.4,65,0.00,,,0.00,WUHU216HW,2013-07-06 03:27:00,
2013-07-05 23:32:00,83.8,71.2,30.52,North,0,0.0,0.0,66,0.00,,,0.00,WUHU216HW,2013-07-06 03:32:00,
2013-07-05 23:37:00,83.8,71.2,30.51,SE,135,0.0,0.0,66,0.00,,,0.00,WUHU216HW,2013-07-06 03:37:00,
2013-07-05 23:42:00,83.6,71.0,30.51,ENE,68,0.0,0.0,66,0.00,,,0.00,WUHU216HW,2013-07-06 03:42:00,
2013-07-05 23:47:00,83.6,71.0,30.51,ENE,68,0.0,0.0,66,0.00,,,0.00,WUHU216HW,2013-07-06 03:47:00,
2013-07-05 23:52:00,83.4,70.8,30.52,ENE,68,0.0,0.0,66,0.00,,,0.00,WUHU216HW,2013-07-06 03:52:00,
2013-07-05 23:57:00,83.4,70.8,30.51,NNW,338,0.0,0.0,66,0.00,,,0.00,WUHU216HW,2013-07-06 03:57:00,